createdAt,value
2017-07-05T00:00:01.870Z,63.50
2017-07-05T00:02:30.263Z,63.40
2017-07-05T00:04:58.621Z,62.90
2017-07-05T00:07:26.892Z,63.00
2017-07-05T00:09:55.487Z,62.90
2017-07-05T00:12:23.778Z,63.00
2017-07-05T00:14:52.448Z,62.80
2017-07-05T00:17:21.153Z,63.30
2017-07-05T00:19:49.842Z,63.20
2017-07-05T00:22:18.434Z,63.60
2017-07-05T00:24:47.989Z,63.60
2017-07-05T00:27:17.049Z,63.50
2017-07-05T00:29:45.425Z,63.50
2017-07-05T00:32:13.708Z,63.40
2017-07-05T00:34:42.284Z,63.60
2017-07-05T00:37:10.658Z,63.50
2017-07-05T00:39:39.167Z,63.60
2017-07-05T00:42:07.660Z,63.80
2017-07-05T00:44:36.350Z,63.60
2017-07-05T00:47:04.905Z,63.80
2017-07-05T00:49:33.190Z,64.00
2017-07-05T00:52:02.719Z,63.70
2017-07-05T00:54:31.726Z,64.30
2017-07-05T00:57:00.025Z,63.90
2017-07-05T00:59:28.608Z,64.10
2017-07-05T01:01:57.615Z,64.50
2017-07-05T01:04:27.658Z,65.20
2017-07-05T01:06:57.038Z,64.80
2017-07-05T01:09:25.907Z,65.00
2017-07-05T01:11:55.247Z,65.00
2017-07-05T01:14:24.302Z,65.70
2017-07-05T01:16:52.563Z,65.70
2017-07-05T01:19:20.863Z,65.90
2017-07-05T01:21:49.148Z,65.80
2017-07-05T01:24:17.776Z,66.40
2017-07-05T01:26:46.324Z,66.30
2017-07-05T01:29:15.326Z,66.20
2017-07-05T01:31:43.821Z,66.90
2017-07-05T01:34:12.087Z,66.50
2017-07-05T01:36:40.409Z,66.30
2017-07-05T01:39:08.710Z,66.40
2017-07-05T01:41:37.499Z,66.50
2017-07-05T01:44:06.134Z,67.00
2017-07-05T01:46:34.408Z,66.70
2017-07-05T01:49:02.704Z,67.10
2017-07-05T01:51:30.994Z,67.60
2017-07-05T01:54:00.140Z,67.50
2017-07-05T01:56:29.485Z,68.20
2017-07-05T01:58:57.773Z,68.20
2017-07-05T02:01:26.075Z,69.10
2017-07-05T02:03:54.548Z,69.50
2017-07-05T02:06:22.811Z,69.20
2017-07-05T02:08:51.389Z,69.40
2017-07-05T02:11:20.961Z,69.90
2017-07-05T02:13:50.018Z,69.90
2017-07-05T02:16:18.445Z,69.90
2017-07-05T02:18:47.224Z,70.10
2017-07-05T02:21:15.873Z,70.00
2017-07-05T02:23:44.162Z,70.40
2017-07-05T02:26:12.555Z,70.40
2017-07-05T02:28:40.868Z,70.40
2017-07-05T02:31:10.057Z,70.30
2017-07-05T02:33:38.678Z,70.70
2017-07-05T02:36:07.949Z,70.60
2017-07-05T02:38:36.311Z,70.60
2017-07-05T02:41:05.445Z,70.90
2017-07-05T02:43:34.623Z,71.00
2017-07-05T02:46:03.214Z,71.50
2017-07-05T02:48:31.523Z,71.50
2017-07-05T02:51:00.558Z,72.90
2017-07-05T02:53:29.281Z,72.10
2017-07-05T02:55:58.581Z,72.30
2017-07-05T02:58:27.206Z,72.10
2017-07-05T03:00:56.286Z,72.30
2017-07-05T03:03:24.963Z,72.30
2017-07-05T03:05:53.268Z,72.50
2017-07-05T03:08:21.546Z,72.50
2017-07-05T03:10:51.288Z,72.60
2017-07-05T03:13:20.096Z,72.90
2017-07-05T03:15:49.092Z,73.00
2017-07-05T03:18:18.356Z,72.90
2017-07-05T03:20:46.644Z,72.80
2017-07-05T03:23:16.261Z,72.90
2017-07-05T03:25:44.622Z,73.40
2017-07-05T03:28:13.394Z,73.00
2017-07-05T03:30:42.201Z,73.00
2017-07-05T03:33:10.505Z,72.70
2017-07-05T03:35:40.161Z,72.30
2017-07-05T03:38:08.466Z,72.60
2017-07-05T03:40:38.581Z,72.60
2017-07-05T03:43:06.977Z,72.50
2017-07-05T03:45:35.247Z,72.20
2017-07-05T03:48:03.802Z,72.60
2017-07-05T03:50:32.065Z,72.50
2017-07-05T03:53:02.371Z,72.80
2017-07-05T03:55:30.737Z,72.80
2017-07-05T03:57:59.064Z,72.50
2017-07-05T04:00:29.171Z,72.90
2017-07-05T04:02:57.907Z,72.90
2017-07-05T04:05:26.786Z,72.60
2017-07-05T04:07:55.220Z,72.40
2017-07-05T04:10:23.537Z,71.40
2017-07-05T04:12:52.275Z,71.40
2017-07-05T04:15:21.571Z,71.00
2017-07-05T04:17:50.831Z,70.30
2017-07-05T04:20:20.611Z,72.60
2017-07-05T04:22:49.013Z,71.70
2017-07-05T04:25:18.117Z,70.60
2017-07-05T04:27:46.488Z,72.10
2017-07-05T04:30:15.371Z,72.10
2017-07-05T04:32:43.656Z,71.40
2017-07-05T04:35:11.926Z,71.90
2017-07-05T04:37:41.118Z,74.70
2017-07-05T04:40:09.622Z,76.80
2017-07-05T04:42:38.820Z,76.30
2017-07-05T04:45:07.223Z,75.20
2017-07-05T04:47:35.847Z,73.50
2017-07-05T04:50:04.490Z,73.40
2017-07-05T04:52:33.303Z,73.40
2017-07-05T04:55:01.952Z,72.50
2017-07-05T04:57:30.270Z,73.80
2017-07-05T04:59:58.545Z,75.30
2017-07-05T05:02:27.858Z,74.00
2017-07-05T05:04:56.247Z,73.90
2017-07-05T05:07:24.489Z,73.30
2017-07-05T05:09:52.783Z,73.80
2017-07-05T05:12:21.116Z,72.80
2017-07-05T05:14:50.965Z,73.70
2017-07-05T05:17:20.259Z,73.60
2017-07-05T05:19:48.824Z,75.80
2017-07-05T05:22:19.321Z,77.30
2017-07-05T05:24:47.704Z,77.30
2017-07-05T05:27:15.997Z,78.50
2017-07-05T05:29:44.596Z,79.40
2017-07-05T05:32:13.183Z,78.90
2017-07-05T05:34:41.832Z,78.60
2017-07-05T05:37:11.741Z,79.80
2017-07-05T05:39:40.031Z,80.20
2017-07-05T05:42:09.571Z,79.90
2017-07-05T05:44:39.101Z,80.90
2017-07-05T05:47:09.224Z,82.90
2017-07-05T05:49:38.019Z,81.90
2017-07-05T05:52:07.367Z,83.30
2017-07-05T05:54:35.658Z,82.70
2017-07-05T05:57:04.686Z,81.70
2017-07-05T05:59:32.984Z,82.90
2017-07-05T06:02:02.683Z,82.70
2017-07-05T06:04:31.069Z,82.90
2017-07-05T06:06:59.341Z,84.60
2017-07-05T06:09:28.451Z,82.10
2017-07-05T06:11:56.709Z,82.70
2017-07-05T06:14:25.039Z,82.80
2017-07-05T06:16:53.431Z,82.30
2017-07-05T06:19:22.590Z,83.60
2017-07-05T06:21:51.695Z,83.50
2017-07-05T06:24:20.511Z,83.40
2017-07-05T06:26:49.592Z,83.80
2017-07-05T06:29:18.635Z,83.80
2017-07-05T06:31:47.655Z,84.30
2017-07-05T06:34:17.110Z,84.20
2017-07-05T06:36:46.204Z,84.80
2017-07-05T06:39:15.399Z,83.60
2017-07-05T06:41:43.775Z,83.50
2017-07-05T06:44:12.389Z,83.20
2017-07-05T06:46:41.956Z,83.70
2017-07-05T06:49:10.927Z,84.00
2017-07-05T06:51:39.239Z,83.00
2017-07-05T06:54:07.631Z,84.50
2017-07-05T06:56:35.928Z,83.20
2017-07-05T06:59:04.592Z,83.20
2017-07-05T07:01:32.967Z,84.30
2017-07-05T07:04:01.658Z,83.70
2017-07-05T07:06:29.953Z,83.40
2017-07-05T07:08:58.427Z,81.70
2017-07-05T07:11:27.634Z,82.80
2017-07-05T07:13:56.431Z,80.90
2017-07-05T07:16:24.722Z,81.50
2017-07-05T07:18:53.101Z,79.30
2017-07-05T07:21:22.519Z,78.90
2017-07-05T07:23:51.170Z,78.20
2017-07-05T07:26:21.288Z,78.40
2017-07-05T07:28:49.741Z,78.80
2017-07-05T07:31:18.278Z,77.30
2017-07-05T07:33:46.571Z,77.80
2017-07-05T07:36:14.943Z,76.50
2017-07-05T07:38:43.321Z,77.60
2017-07-05T07:41:11.610Z,77.20
2017-07-05T07:43:40.212Z,78.80
2017-07-05T07:46:08.482Z,78.60
2017-07-05T07:48:36.764Z,77.00
2017-07-05T07:51:05.065Z,77.10
2017-07-05T07:53:34.623Z,78.10
2017-07-05T07:56:03.206Z,77.70
2017-07-05T07:58:31.467Z,78.50
2017-07-05T08:01:00.546Z,79.20
2017-07-05T08:03:28.911Z,79.20
2017-07-05T08:05:57.183Z,78.80
2017-07-05T08:08:26.907Z,75.10
2017-07-05T08:10:55.904Z,75.80
2017-07-05T08:13:24.309Z,72.90
2017-07-05T08:15:53.075Z,70.60
2017-07-05T08:18:21.367Z,71.20
2017-07-05T08:20:50.397Z,66.70
2017-07-05T08:23:18.743Z,67.10
2017-07-05T08:25:47.010Z,66.90
2017-07-05T08:28:15.327Z,66.70
2017-07-05T08:30:44.333Z,65.00
2017-07-05T08:33:13.016Z,65.80
2017-07-05T08:35:41.313Z,63.90
2017-07-05T08:38:10.486Z,61.90
2017-07-05T08:40:38.865Z,61.90
2017-07-05T08:43:07.128Z,64.40
2017-07-05T08:45:35.832Z,61.30
2017-07-05T08:48:04.122Z,60.70
2017-07-05T08:50:32.491Z,59.70
2017-07-05T08:53:01.415Z,62.00
2017-07-05T08:55:29.787Z,59.50
2017-07-05T08:57:58.311Z,62.20
2017-07-05T09:00:27.354Z,56.60
2017-07-05T09:02:55.648Z,56.60
2017-07-05T09:05:23.941Z,56.60
2017-07-05T09:07:52.185Z,55.60
2017-07-05T09:10:21.979Z,58.10
2017-07-05T09:12:50.941Z,55.80
2017-07-05T09:15:20.252Z,57.00
2017-07-05T09:17:49.220Z,57.00
2017-07-05T09:20:17.538Z,54.40
2017-07-05T09:22:47.371Z,53.60
2017-07-05T09:25:16.482Z,57.90
2017-07-05T09:27:45.990Z,57.20
2017-07-05T09:30:14.288Z,55.30
2017-07-05T09:32:42.663Z,56.20
2017-07-05T09:35:12.881Z,56.30
2017-07-05T09:37:41.991Z,56.10
2017-07-05T09:40:10.323Z,56.10
2017-07-05T09:42:38.704Z,58.00
2017-07-05T09:45:07.010Z,57.60
2017-07-05T09:47:35.649Z,57.20
2017-07-05T09:50:04.048Z,55.70
2017-07-05T09:52:32.545Z,55.10
2017-07-05T09:55:00.837Z,53.50
2017-07-05T09:57:30.524Z,53.30
2017-07-05T09:59:59.151Z,51.50
2017-07-05T10:02:27.533Z,51.70
2017-07-05T10:04:55.794Z,50.70
2017-07-05T10:07:24.169Z,50.90
2017-07-05T10:09:53.534Z,49.90
2017-07-05T10:12:22.903Z,50.10
2017-07-05T10:14:51.205Z,50.10
2017-07-05T10:17:20.970Z,50.30
2017-07-05T10:19:49.285Z,50.30
2017-07-05T10:22:17.623Z,49.80
2017-07-05T10:24:46.864Z,49.10
2017-07-05T10:27:15.616Z,49.80
2017-07-05T10:29:44.836Z,49.50
2017-07-05T10:32:13.235Z,50.00
2017-07-05T10:34:41.831Z,48.70
2017-07-05T10:37:10.386Z,48.70
2017-07-05T10:39:38.686Z,49.50
2017-07-05T10:42:06.996Z,49.60
2017-07-05T10:44:36.165Z,47.40
2017-07-05T10:47:04.599Z,47.40
2017-07-05T10:49:33.232Z,47.10
2017-07-05T10:52:01.554Z,48.10
2017-07-05T10:54:30.058Z,50.10
2017-07-05T10:56:58.890Z,50.10
2017-07-05T10:59:27.951Z,50.20
2017-07-05T11:01:56.594Z,50.00
2017-07-05T11:04:25.413Z,50.40
2017-07-05T11:06:55.515Z,81.30
2017-07-05T11:09:24.441Z,80.90
2017-07-05T11:11:52.704Z,42.90
2017-07-05T11:14:21.367Z,40.50
2017-07-05T11:16:49.720Z,40.30
2017-07-05T11:19:18.036Z,40.30
2017-07-05T11:21:46.354Z,42.90
2017-07-05T11:24:15.618Z,47.20
2017-07-05T11:26:45.016Z,47.20
2017-07-05T11:29:13.332Z,49.60
2017-07-05T11:31:42.424Z,50.00
2017-07-05T11:34:11.191Z,50.80
2017-07-05T11:36:39.533Z,50.10
2017-07-05T11:39:09.606Z,49.40
2017-07-05T11:41:37.942Z,49.40
2017-07-05T11:44:07.666Z,44.10
2017-07-05T11:46:36.008Z,44.60
2017-07-05T11:49:04.286Z,44.30
2017-07-05T11:51:32.884Z,44.00
2017-07-05T11:54:01.896Z,44.80
2017-07-05T11:56:31.555Z,47.90
2017-07-05T11:59:01.547Z,49.10
2017-07-05T12:01:30.404Z,49.50
2017-07-05T12:03:59.770Z,48.10
2017-07-05T12:06:28.058Z,48.10
2017-07-05T12:08:56.364Z,45.20
2017-07-05T12:11:25.880Z,45.10
2017-07-05T12:13:54.178Z,45.40
2017-07-05T12:16:23.234Z,44.10
2017-07-05T12:18:52.948Z,39.40
2017-07-05T12:21:21.663Z,39.90
2017-07-05T12:23:50.494Z,36.30
2017-07-05T12:26:19.375Z,34.50
2017-07-05T12:28:48.234Z,35.00
2017-07-05T12:33:46.860Z,84.40
2017-07-05T12:36:15.185Z,42.40
2017-07-05T12:38:45.249Z,43.00
2017-07-05T12:41:13.915Z,43.00
2017-07-05T12:43:42.637Z,43.10
2017-07-05T12:46:11.588Z,44.20
2017-07-05T12:48:40.215Z,42.10
2017-07-05T12:51:08.495Z,41.40
2017-07-05T12:53:37.149Z,41.10
2017-07-05T12:58:36.545Z,34.90
2017-07-05T13:01:05.630Z,34.30
2017-07-05T13:03:34.942Z,34.20
2017-07-05T13:06:03.814Z,34.20
2017-07-05T13:08:32.134Z,35.70
2017-07-05T13:11:01.660Z,37.40
2017-07-05T13:13:30.704Z,33.90
2017-07-05T13:15:59.033Z,33.80
2017-07-05T13:18:27.684Z,33.00
2017-07-05T13:20:56.773Z,31.70
2017-07-05T13:23:25.067Z,32.40
2017-07-05T13:25:53.644Z,30.80
2017-07-05T13:28:21.944Z,30.50
2017-07-05T13:30:50.908Z,30.50
2017-07-05T13:33:19.527Z,34.00
2017-07-05T13:38:17.982Z,75.90
2017-07-05T13:40:46.560Z,31.80
2017-07-05T13:43:14.870Z,30.40
2017-07-05T13:45:43.154Z,31.00
2017-07-05T13:48:11.760Z,31.80
2017-07-05T13:50:40.971Z,30.70
2017-07-05T13:53:10.777Z,25.50
2017-07-05T13:55:39.767Z,25.80
2017-07-05T13:58:08.066Z,26.50
2017-07-05T14:00:36.467Z,26.60
2017-07-05T14:05:34.842Z,28.40
2017-07-05T14:08:03.138Z,29.80
2017-07-05T14:10:31.735Z,30.70
2017-07-05T14:13:01.542Z,30.40
2017-07-05T14:15:32.051Z,27.20
2017-07-05T14:18:00.348Z,27.60
2017-07-05T14:20:28.658Z,25.90
2017-07-05T14:22:57.209Z,24.90
2017-07-05T14:25:25.477Z,24.00
2017-07-05T14:27:53.778Z,22.90
2017-07-05T14:30:22.393Z,24.10
2017-07-05T14:32:50.749Z,26.70
2017-07-05T14:35:20.678Z,32.50
2017-07-05T14:37:50.109Z,33.00
2017-07-05T14:40:18.606Z,34.30
2017-07-05T14:42:47.361Z,35.80
2017-07-05T14:45:16.071Z,37.10
2017-07-05T14:47:44.366Z,38.80
2017-07-05T14:50:12.783Z,40.40
2017-07-05T14:52:41.391Z,40.80
2017-07-05T14:55:10.281Z,41.40
2017-07-05T14:57:38.565Z,39.60
2017-07-05T15:00:07.148Z,35.40
2017-07-05T15:02:36.152Z,31.80
2017-07-05T15:05:04.461Z,29.70
2017-07-05T15:07:33.588Z,29.10
2017-07-05T15:12:31.772Z,26.80
2017-07-05T15:15:00.463Z,26.50
2017-07-05T15:17:28.763Z,28.40
2017-07-05T15:19:57.565Z,31.10
2017-07-05T15:22:26.282Z,34.50
2017-07-05T15:24:54.552Z,37.60
2017-07-05T15:27:22.873Z,39.10
2017-07-05T15:29:51.412Z,37.00
2017-07-05T15:32:19.726Z,34.00
2017-07-05T15:34:48.006Z,31.90
2017-07-05T15:37:16.585Z,30.10
2017-07-05T15:39:44.876Z,30.80
2017-07-05T15:42:13.186Z,31.80
2017-07-05T15:44:41.742Z,33.30
2017-07-05T15:47:10.019Z,35.10
2017-07-05T15:49:38.301Z,37.30
2017-07-05T15:52:08.025Z,55.80
2017-07-05T15:54:36.307Z,51.90
2017-07-05T15:57:04.589Z,52.00
2017-07-05T15:59:34.802Z,53.20
2017-07-05T16:02:03.574Z,53.20
2017-07-05T16:04:31.858Z,44.40
2017-07-05T16:07:00.401Z,52.10
2017-07-05T16:09:29.451Z,59.20
2017-07-05T16:11:57.772Z,56.60
2017-07-05T16:14:26.333Z,54.80
2017-07-05T16:16:54.608Z,43.20
2017-07-05T16:19:23.491Z,43.10
2017-07-05T16:21:52.503Z,42.50
2017-07-05T16:24:20.824Z,42.50
2017-07-05T16:26:49.110Z,42.40
2017-07-05T16:29:17.761Z,42.00
2017-07-05T16:31:46.159Z,42.70
2017-07-05T16:34:14.441Z,42.00
2017-07-05T16:36:42.767Z,42.90
2017-07-05T16:39:11.815Z,43.90
2017-07-05T16:41:40.408Z,43.90
2017-07-05T16:44:08.693Z,44.40
2017-07-05T16:46:36.979Z,44.10
2017-07-05T16:49:05.627Z,43.60
2017-07-05T16:51:33.900Z,43.10
2017-07-05T16:54:02.537Z,43.00
2017-07-05T16:56:30.839Z,43.00
2017-07-05T16:58:59.118Z,43.30
2017-07-05T17:01:27.444Z,43.90
2017-07-05T17:03:55.721Z,43.90
2017-07-05T17:06:24.286Z,44.40
2017-07-05T17:08:53.348Z,46.90
2017-07-05T17:11:21.626Z,45.60
2017-07-05T17:13:50.647Z,45.50
2017-07-05T17:16:19.569Z,44.30
2017-07-05T17:18:48.936Z,43.80
2017-07-05T17:21:17.243Z,43.80
2017-07-05T17:23:45.601Z,43.60
2017-07-05T17:26:14.303Z,43.40
2017-07-05T17:28:42.983Z,43.10
2017-07-05T17:31:11.675Z,43.60
2017-07-05T17:33:40.746Z,44.00
2017-07-05T17:36:09.030Z,44.00
2017-07-05T17:38:38.150Z,43.80
2017-07-05T17:41:06.431Z,44.30
2017-07-05T17:43:35.254Z,43.70
2017-07-05T17:46:03.716Z,44.20
2017-07-05T17:48:32.346Z,44.60
2017-07-05T17:51:01.403Z,45.50
2017-07-05T17:53:29.805Z,45.50
2017-07-05T17:55:58.461Z,46.10
2017-07-05T17:58:26.764Z,46.20
2017-07-05T18:00:55.847Z,45.90
2017-07-05T18:03:24.133Z,45.40
2017-07-05T18:05:53.228Z,45.70
2017-07-05T18:08:22.278Z,45.50
2017-07-05T18:10:51.326Z,46.40
2017-07-05T18:13:19.638Z,46.40
2017-07-05T18:15:48.718Z,46.60
2017-07-05T18:18:17.005Z,46.70
2017-07-05T18:20:45.581Z,47.10
2017-07-05T18:23:14.344Z,47.90
2017-07-05T18:25:42.610Z,48.10
2017-07-05T18:28:11.727Z,48.10
2017-07-05T18:30:40.071Z,48.10
2017-07-05T18:33:09.449Z,48.70
2017-07-05T18:35:37.762Z,48.70
2017-07-05T18:38:06.045Z,48.80
2017-07-05T18:40:35.214Z,49.50
2017-07-05T18:43:04.212Z,49.50
2017-07-05T18:45:32.791Z,49.30
2017-07-05T18:48:01.090Z,49.70
2017-07-05T18:50:29.461Z,50.20
2017-07-05T18:52:57.773Z,50.00
2017-07-05T18:55:27.357Z,50.80
2017-07-05T18:57:57.581Z,50.80
2017-07-05T19:00:25.859Z,50.80
2017-07-05T19:02:54.179Z,50.00
2017-07-05T19:05:23.252Z,50.90
2017-07-05T19:07:51.571Z,50.90
2017-07-05T19:10:20.931Z,51.40
2017-07-05T19:12:49.205Z,51.30
2017-07-05T19:15:18.145Z,52.00
2017-07-05T19:17:47.230Z,52.20
2017-07-05T19:20:16.139Z,51.70
2017-07-05T19:22:45.539Z,51.70
2017-07-05T19:25:14.089Z,51.70
2017-07-05T19:27:42.370Z,52.10
2017-07-05T19:30:10.670Z,52.30
2017-07-05T19:32:38.964Z,52.20
2017-07-05T19:35:07.555Z,52.30
2017-07-05T19:37:35.825Z,53.10
2017-07-05T19:40:04.604Z,54.20
2017-07-05T19:42:32.903Z,54.80
2017-07-05T19:45:01.804Z,54.70
2017-07-05T19:47:30.537Z,54.50
2017-07-05T19:49:59.442Z,55.30
2017-07-05T19:52:32.165Z,55.70
2017-07-05T19:55:00.648Z,56.00
2017-07-05T19:57:28.924Z,56.40
2017-07-05T19:59:57.246Z,57.10
2017-07-05T20:02:26.301Z,56.90
2017-07-05T20:04:54.904Z,56.90
2017-07-05T20:07:23.181Z,56.80
2017-07-05T20:09:52.220Z,57.80
2017-07-05T20:12:21.567Z,58.40
2017-07-05T20:14:49.899Z,58.40
2017-07-05T20:17:18.945Z,59.60
2017-07-05T20:19:47.521Z,59.60
2017-07-05T20:22:16.544Z,60.20
2017-07-05T20:24:44.821Z,60.90
2017-07-05T20:27:13.379Z,59.50
2017-07-05T20:29:41.659Z,60.60
2017-07-05T20:32:09.973Z,59.40
2017-07-05T20:34:38.528Z,61.90
2017-07-05T20:37:06.801Z,63.40
2017-07-05T20:39:35.114Z,64.10
2017-07-05T20:42:03.504Z,64.70
2017-07-05T20:44:32.108Z,64.50
2017-07-05T20:47:00.897Z,64.80
2017-07-05T20:49:29.268Z,65.50
2017-07-05T20:51:57.539Z,66.30
2017-07-05T20:54:26.157Z,66.90
2017-07-05T20:56:54.974Z,67.10
2017-07-05T20:59:24.155Z,67.90
2017-07-05T21:01:53.033Z,67.90
2017-07-05T21:04:21.331Z,68.10
2017-07-05T21:06:49.911Z,68.10
2017-07-05T21:09:18.183Z,68.50
2017-07-05T21:11:46.483Z,68.50
2017-07-05T21:14:14.871Z,69.10
2017-07-05T21:16:43.756Z,68.80
2017-07-05T21:19:12.537Z,69.00
2017-07-05T21:21:40.953Z,70.60
2017-07-05T21:24:09.331Z,71.00
2017-07-05T21:26:37.611Z,71.10
2017-07-05T21:29:06.592Z,72.10
2017-07-05T21:31:35.146Z,72.40
2017-07-05T21:34:04.065Z,72.90
2017-07-05T21:36:33.154Z,73.10
2017-07-05T21:39:01.534Z,73.80
2017-07-05T21:41:29.804Z,74.00
2017-07-05T21:43:58.418Z,74.10
2017-07-05T21:46:27.512Z,74.90
2017-07-05T21:48:55.791Z,75.30
2017-07-05T21:51:24.130Z,75.20
2017-07-05T21:53:53.621Z,77.10
2017-07-05T21:56:22.183Z,76.30
2017-07-05T21:58:50.579Z,76.70
2017-07-05T22:01:19.362Z,76.00
2017-07-05T22:03:47.906Z,76.20
2017-07-05T22:06:16.173Z,76.60
2017-07-05T22:08:45.619Z,77.40
2017-07-05T22:11:14.212Z,77.40
2017-07-05T22:13:42.543Z,77.50
2017-07-05T22:16:11.611Z,78.40
2017-07-05T22:18:40.171Z,78.50
2017-07-05T22:21:09.006Z,78.30
2017-07-05T22:23:37.976Z,78.40
2017-07-05T22:26:06.577Z,78.50
2017-07-05T22:28:35.353Z,79.00
2017-07-05T22:31:03.626Z,79.40
2017-07-05T22:33:32.014Z,79.60
2017-07-05T22:36:00.273Z,79.90
2017-07-05T22:38:28.881Z,79.10
2017-07-05T22:40:57.136Z,80.10
2017-07-05T22:43:25.462Z,80.00
2017-07-05T22:45:53.841Z,80.60
2017-07-05T22:48:22.118Z,80.90
2017-07-05T22:50:50.668Z,81.20
2017-07-05T22:53:19.444Z,81.20
2017-07-05T22:55:48.483Z,81.00
2017-07-05T22:58:17.597Z,80.90
2017-07-05T23:00:46.394Z,81.20
2017-07-05T23:03:14.978Z,81.40
2017-07-05T23:05:43.769Z,81.30
2017-07-05T23:08:12.553Z,81.60
2017-07-05T23:10:41.454Z,82.00
2017-07-05T23:13:10.456Z,82.00
2017-07-05T23:15:39.026Z,81.80
2017-07-05T23:18:08.789Z,82.00
2017-07-05T23:20:37.070Z,82.10
2017-07-05T23:23:05.352Z,82.30
2017-07-05T23:25:33.703Z,81.90
2017-07-05T23:28:02.305Z,81.70
2017-07-05T23:30:30.575Z,81.80
2017-07-05T23:32:59.155Z,81.30
2017-07-05T23:35:27.435Z,81.60
2017-07-05T23:37:55.720Z,81.60
2017-07-05T23:40:24.310Z,82.00
2017-07-05T23:42:52.600Z,82.90
2017-07-05T23:45:21.602Z,83.10
2017-07-05T23:47:49.980Z,83.50
2017-07-05T23:50:18.295Z,83.10
2017-07-05T23:52:46.839Z,83.20
2017-07-05T23:55:15.742Z,84.10
2017-07-05T23:57:44.014Z,84.10
